createdAt,value
2018-12-20T00:00:18.172Z,24.02
2018-12-20T00:02:45.653Z,23.45
2018-12-20T00:05:13.088Z,23.85
2018-12-20T00:07:40.551Z,24.30
2018-12-20T00:10:08.058Z,24.67
2018-12-20T00:12:35.516Z,24.05
2018-12-20T00:15:03.372Z,24.30
2018-12-20T00:17:36.602Z,23.87
2018-12-20T00:20:05.649Z,24.55
2018-12-20T00:22:33.198Z,22.48
2018-12-20T00:25:00.654Z,24.35
2018-12-20T00:27:28.194Z,22.73
2018-12-20T00:29:55.622Z,24.27
2018-12-20T00:32:23.075Z,24.20
2018-12-20T00:34:50.595Z,24.52
2018-12-20T00:37:18.114Z,24.90
2018-12-20T00:39:45.586Z,25.23
2018-12-20T00:42:13.058Z,24.25
2018-12-20T00:44:40.548Z,24.47
2018-12-20T00:47:08.127Z,24.40
2018-12-20T00:49:35.613Z,24.15
2018-12-20T00:52:03.064Z,24.63
2018-12-20T00:54:30.666Z,25.00
2018-12-20T00:56:58.119Z,24.65
2018-12-20T00:59:25.562Z,24.15
2018-12-20T01:01:53.351Z,25.62
2018-12-20T01:04:20.844Z,24.30
2018-12-20T01:06:48.266Z,24.70
2018-12-20T01:09:15.708Z,24.82
2018-12-20T01:11:43.371Z,25.95
2018-12-20T01:14:11.276Z,25.25
2018-12-20T01:16:38.759Z,26.07
2018-12-20T01:19:06.246Z,26.65
2018-12-20T01:21:33.731Z,26.82
2018-12-20T01:24:01.298Z,25.12
2018-12-20T01:26:28.819Z,26.30
2018-12-20T01:28:56.424Z,26.23
2018-12-20T01:31:23.990Z,25.68
2018-12-20T01:33:51.430Z,25.50
2018-12-20T01:36:18.969Z,25.97
2018-12-20T01:38:46.475Z,25.95
2018-12-20T01:41:13.980Z,25.80
2018-12-20T01:43:41.418Z,27.32
2018-12-20T01:46:08.861Z,28.98
2018-12-20T01:48:36.474Z,28.10
2018-12-20T01:51:04.171Z,26.23
2018-12-20T01:53:31.676Z,28.60
2018-12-20T01:55:59.206Z,27.37
2018-12-20T01:58:26.661Z,27.62
2018-12-20T02:00:54.144Z,28.65
2018-12-20T02:03:21.641Z,28.15
2018-12-20T02:05:49.180Z,29.07
2018-12-20T02:08:16.627Z,28.60
2018-12-20T02:10:44.071Z,29.47
2018-12-20T02:13:11.509Z,28.50
2018-12-20T02:15:38.940Z,29.07
2018-12-20T02:18:06.574Z,27.75
2018-12-20T02:20:34.122Z,28.85
2018-12-20T02:23:01.714Z,30.10
2018-12-20T02:25:29.325Z,29.37
2018-12-20T02:27:56.851Z,30.30
2018-12-20T02:30:24.337Z,29.70
2018-12-20T02:32:51.854Z,30.45
2018-12-20T02:35:19.532Z,30.52
2018-12-20T02:37:47.780Z,30.60
2018-12-20T02:40:15.277Z,29.37
2018-12-20T02:42:42.839Z,29.55
2018-12-20T02:45:11.135Z,30.75
2018-12-20T02:47:38.686Z,30.90
2018-12-20T02:50:06.192Z,30.50
2018-12-20T02:52:33.648Z,31.60
2018-12-20T02:55:01.086Z,32.38
2018-12-20T02:57:28.515Z,30.70
2018-12-20T02:59:55.958Z,31.05
2018-12-20T03:02:24.088Z,30.43
2018-12-20T03:04:51.587Z,31.48
2018-12-20T03:07:19.142Z,31.65
2018-12-20T03:09:46.655Z,31.73
2018-12-20T03:12:14.199Z,31.62
2018-12-20T03:14:41.823Z,31.90
2018-12-20T03:17:09.355Z,31.95
2018-12-20T03:19:37.052Z,31.95
2018-12-20T03:22:04.711Z,32.28
2018-12-20T03:24:32.363Z,33.48
2018-12-20T03:26:59.994Z,33.42
2018-12-20T03:29:27.700Z,33.75
2018-12-20T03:31:55.509Z,34.20
2018-12-20T03:34:23.425Z,35.70
2018-12-20T03:36:50.910Z,33.98
2018-12-20T03:39:18.678Z,35.65
2018-12-20T03:41:46.414Z,36.85
2018-12-20T03:44:13.983Z,35.60
2018-12-20T03:46:41.410Z,35.83
2018-12-20T03:49:08.913Z,36.55
2018-12-20T03:51:36.390Z,36.00
2018-12-20T03:54:04.283Z,36.63
2018-12-20T03:56:31.793Z,37.30
2018-12-20T03:59:00.156Z,37.58
2018-12-20T04:01:27.734Z,37.20
2018-12-20T04:03:55.321Z,39.83
2018-12-20T04:06:22.946Z,39.10
2018-12-20T04:08:50.463Z,39.35
2018-12-20T04:11:18.126Z,37.45
2018-12-20T04:13:45.926Z,37.13
2018-12-20T04:16:13.444Z,38.88
2018-12-20T04:18:41.477Z,38.45
2018-12-20T04:21:09.301Z,36.73
2018-12-20T04:23:36.855Z,36.73
2018-12-20T04:26:04.377Z,35.63
2018-12-20T04:28:32.296Z,34.58
2018-12-20T04:30:59.936Z,35.38
2018-12-20T04:33:27.546Z,36.15
2018-12-20T04:35:55.557Z,38.08
2018-12-20T04:38:23.095Z,35.70
2018-12-20T04:40:50.724Z,35.17
2018-12-20T04:43:18.218Z,35.52
2018-12-20T04:45:46.834Z,35.92
2018-12-20T04:48:15.611Z,37.53
2018-12-20T04:50:43.313Z,37.28
2018-12-20T04:53:11.022Z,38.50
2018-12-20T04:55:38.487Z,35.20
2018-12-20T04:58:06.435Z,35.05
2018-12-20T05:00:34.079Z,37.67
2018-12-20T05:03:01.632Z,37.15
2018-12-20T05:05:29.244Z,35.28
2018-12-20T05:07:56.696Z,37.53
2018-12-20T05:10:24.193Z,37.90
2018-12-20T05:12:51.822Z,37.70
2018-12-20T05:15:19.379Z,38.05
2018-12-20T05:17:46.950Z,37.88
2018-12-20T05:20:14.613Z,37.35
2018-12-20T05:22:42.220Z,37.77
2018-12-20T05:25:09.802Z,37.50
2018-12-20T05:27:37.239Z,36.70
2018-12-20T05:30:07.375Z,38.58
2018-12-20T05:32:34.993Z,38.28
2018-12-20T05:35:02.745Z,37.90
2018-12-20T05:37:30.322Z,38.47
2018-12-20T05:39:57.919Z,38.40
2018-12-20T05:42:25.500Z,39.10
2018-12-20T05:44:53.221Z,40.73
2018-12-20T05:47:20.688Z,40.15
2018-12-20T05:49:48.208Z,39.45
2018-12-20T05:52:15.767Z,39.73
2018-12-20T05:54:43.475Z,37.90
2018-12-20T05:57:11.276Z,37.90
2018-12-20T05:59:38.855Z,39.40
2018-12-20T06:02:06.316Z,37.63
2018-12-20T06:04:33.926Z,39.83
2018-12-20T06:07:01.467Z,41.00
2018-12-20T06:09:29.097Z,39.05
2018-12-20T06:11:56.630Z,38.08
2018-12-20T06:14:24.147Z,39.73
2018-12-20T06:16:51.614Z,40.78
2018-12-20T06:19:19.073Z,37.83
2018-12-20T06:21:46.598Z,38.13
2018-12-20T06:24:14.052Z,37.73
2018-12-20T06:26:41.494Z,39.10
2018-12-20T06:29:08.967Z,39.33
2018-12-20T06:31:36.891Z,37.53
2018-12-20T06:34:04.326Z,37.98
2018-12-20T06:36:31.782Z,39.95
2018-12-20T06:38:59.241Z,38.63
2018-12-20T06:41:26.677Z,38.33
2018-12-20T06:43:54.116Z,38.70
2018-12-20T06:46:21.655Z,38.25
2018-12-20T06:48:49.198Z,39.97
2018-12-20T06:51:16.654Z,38.65
2018-12-20T06:53:44.082Z,38.98
2018-12-20T06:56:11.544Z,37.90
2018-12-20T06:58:38.980Z,39.25
2018-12-20T07:01:06.422Z,41.88
2018-12-20T07:03:33.889Z,40.78
2018-12-20T07:06:01.343Z,41.58
2018-12-20T07:08:29.411Z,40.45
2018-12-20T07:10:56.845Z,41.37
2018-12-20T07:13:24.295Z,40.25
2018-12-20T07:15:51.755Z,39.15
2018-12-20T07:18:19.191Z,40.33
2018-12-20T07:20:46.661Z,41.02
2018-12-20T07:23:14.124Z,43.42
2018-12-20T07:25:41.793Z,42.33
2018-12-20T07:28:09.257Z,40.90
2018-12-20T07:30:36.700Z,41.33
2018-12-20T07:33:04.156Z,45.33
2018-12-20T07:35:31.603Z,44.83
2018-12-20T07:37:59.050Z,43.30
2018-12-20T07:40:26.482Z,40.83
2018-12-20T07:42:54.086Z,41.48
2018-12-20T07:45:21.506Z,43.83
2018-12-20T07:47:48.974Z,41.70
2018-12-20T07:50:16.422Z,44.65
2018-12-20T07:52:43.875Z,47.27
2018-12-20T07:55:11.321Z,45.45
2018-12-20T07:57:38.854Z,43.42
2018-12-20T08:00:07.169Z,43.70
2018-12-20T08:02:34.643Z,46.70
2018-12-20T08:05:02.129Z,43.50
2018-12-20T08:07:29.622Z,42.45
2018-12-20T08:09:57.950Z,47.15
2018-12-20T08:12:25.375Z,44.40
2018-12-20T08:14:52.840Z,42.70
2018-12-20T08:17:20.283Z,43.85
2018-12-20T08:19:47.910Z,45.33
2018-12-20T08:22:15.361Z,42.85
2018-12-20T08:24:42.783Z,44.63
2018-12-20T08:27:10.258Z,42.50
2018-12-20T08:29:37.703Z,44.73
2018-12-20T08:32:05.150Z,43.33
2018-12-20T08:34:32.599Z,42.95
2018-12-20T08:37:00.043Z,43.58
2018-12-20T08:39:27.499Z,40.75
2018-12-20T08:41:54.946Z,42.87
2018-12-20T08:44:22.377Z,43.57
2018-12-20T08:46:54.331Z,40.17
2018-12-20T08:49:19.402Z,39.70
2018-12-20T08:51:49.188Z,45.33
2018-12-20T08:54:16.284Z,39.10
2018-12-20T08:56:43.727Z,39.48
2018-12-20T08:59:11.179Z,40.43
2018-12-20T09:01:38.623Z,40.10
2018-12-20T09:04:06.125Z,40.92
2018-12-20T09:06:33.550Z,44.65
2018-12-20T09:09:01.003Z,37.03
2018-12-20T09:11:28.452Z,39.75
2018-12-20T09:13:55.902Z,40.23
2018-12-20T09:16:23.362Z,42.70
2018-12-20T09:18:50.803Z,40.13
2018-12-20T09:21:18.233Z,38.45
2018-12-20T09:23:45.679Z,42.08
2018-12-20T09:26:13.112Z,40.15
2018-12-20T09:28:40.547Z,39.27
2018-12-20T09:31:08.008Z,39.48
2018-12-20T09:33:35.457Z,39.15
2018-12-20T09:36:02.919Z,38.73
2018-12-20T09:38:30.768Z,39.00
2018-12-20T09:40:58.218Z,38.60
2018-12-20T09:43:25.668Z,39.92
2018-12-20T09:45:53.126Z,38.53
2018-12-20T09:48:20.574Z,43.28
2018-12-20T09:50:48.022Z,40.15
2018-12-20T09:53:15.467Z,42.45
2018-12-20T09:55:42.918Z,40.67
2018-12-20T09:58:10.392Z,40.03
2018-12-20T10:00:37.851Z,40.08
2018-12-20T10:03:05.292Z,41.60
2018-12-20T10:05:32.756Z,42.30
2018-12-20T10:08:00.216Z,39.27
2018-12-20T10:10:27.678Z,40.63
2018-12-20T10:12:55.291Z,37.90
2018-12-20T10:15:22.750Z,37.67
2018-12-20T10:17:50.184Z,37.50
2018-12-20T10:20:17.642Z,40.70
2018-12-20T10:22:45.095Z,37.70
2018-12-20T10:25:12.551Z,37.80
2018-12-20T10:27:40.035Z,37.60
2018-12-20T10:30:08.394Z,38.25
2018-12-20T10:32:35.856Z,35.85
2018-12-20T10:35:03.715Z,37.70
2018-12-20T10:37:31.158Z,40.63
2018-12-20T10:39:58.594Z,37.10
2018-12-20T10:42:26.032Z,37.67
2018-12-20T10:44:53.504Z,41.85
2018-12-20T10:47:28.799Z,38.73
2018-12-20T10:49:52.679Z,40.23
2018-12-20T10:52:20.151Z,39.58
2018-12-20T10:54:47.582Z,41.65
2018-12-20T10:57:15.031Z,37.58
2018-12-20T10:59:43.102Z,35.78
2018-12-20T11:02:16.197Z,39.73
2018-12-20T11:04:49.222Z,36.75
2018-12-20T11:07:22.291Z,39.23
2018-12-20T11:09:55.517Z,38.95
2018-12-20T11:12:26.181Z,38.25
2018-12-20T11:14:54.533Z,36.65
2018-12-20T11:17:21.978Z,35.27
2018-12-20T11:19:49.443Z,38.50
2018-12-20T11:22:16.886Z,39.53
2018-12-20T11:24:44.341Z,39.70
2018-12-20T11:27:11.806Z,37.53
2018-12-20T11:29:39.233Z,37.80
2018-12-20T11:32:06.690Z,38.28
2018-12-20T11:34:34.159Z,36.60
2018-12-20T11:37:02.525Z,41.02
2018-12-20T11:39:29.970Z,39.05
2018-12-20T11:41:57.430Z,39.47
2018-12-20T11:44:24.886Z,36.83
2018-12-20T11:46:52.332Z,36.23
2018-12-20T11:49:19.766Z,36.45
2018-12-20T11:51:47.218Z,37.40
2018-12-20T11:54:14.661Z,37.17
2018-12-20T11:56:44.051Z,38.38
2018-12-20T11:59:12.793Z,36.95
2018-12-20T12:01:40.355Z,37.90
2018-12-20T12:04:07.811Z,39.95
2018-12-20T12:06:35.546Z,36.40
2018-12-20T12:09:04.919Z,37.38
2018-12-20T12:11:32.370Z,37.35
2018-12-20T12:13:59.830Z,37.35
2018-12-20T12:16:27.277Z,39.42
2018-12-20T12:18:54.741Z,35.97
2018-12-20T12:21:22.214Z,38.23
2018-12-20T12:23:49.668Z,34.58
2018-12-20T12:26:17.122Z,37.53
2018-12-20T12:28:44.578Z,35.08
2018-12-20T12:31:12.042Z,40.85
2018-12-20T12:33:39.497Z,37.33
2018-12-20T12:36:07.929Z,36.88
2018-12-20T12:38:35.388Z,36.20
2018-12-20T12:41:02.927Z,37.38
2018-12-20T12:43:30.359Z,36.00
2018-12-20T12:45:57.811Z,37.40
2018-12-20T12:48:25.254Z,36.75
2018-12-20T12:50:52.731Z,39.45
2018-12-20T12:53:20.195Z,36.10
2018-12-20T12:55:47.651Z,37.03
2018-12-20T12:58:15.101Z,36.60
2018-12-20T13:00:42.543Z,35.80
2018-12-20T13:03:09.995Z,35.88
2018-12-20T13:05:37.431Z,33.63
2018-12-20T13:08:04.891Z,34.40
2018-12-20T13:10:32.344Z,30.68
2018-12-20T13:12:59.846Z,31.73
2018-12-20T13:15:27.290Z,31.17
2018-12-20T13:17:54.787Z,33.95
2018-12-20T13:20:22.219Z,32.90
2018-12-20T13:22:49.659Z,33.85
2018-12-20T13:25:17.122Z,30.92
2018-12-20T13:27:44.582Z,32.25
2018-12-20T13:30:12.031Z,30.87
2018-12-20T13:32:39.466Z,31.23
2018-12-20T13:35:06.918Z,31.37
2018-12-20T13:37:34.380Z,32.08
2018-12-20T13:40:01.839Z,28.90
2018-12-20T13:42:29.286Z,30.12
2018-12-20T13:44:56.834Z,28.23
2018-12-20T13:47:24.278Z,31.13
2018-12-20T13:49:52.629Z,26.25
2018-12-20T13:52:20.242Z,26.40
2018-12-20T13:54:47.701Z,27.98
2018-12-20T13:57:15.158Z,28.23
2018-12-20T13:59:42.629Z,26.25
2018-12-20T14:02:10.586Z,27.48
2018-12-20T14:04:38.041Z,25.72
2018-12-20T14:07:05.496Z,26.90
2018-12-20T14:09:32.959Z,27.45
2018-12-20T14:12:00.398Z,27.73
2018-12-20T14:14:27.842Z,27.45
2018-12-20T14:16:55.278Z,28.52
2018-12-20T14:19:22.759Z,30.45
2018-12-20T14:21:50.232Z,29.85
2018-12-20T14:24:17.704Z,29.82
2018-12-20T14:26:45.135Z,31.27
2018-12-20T14:29:12.595Z,30.92
2018-12-20T14:31:40.042Z,29.10
2018-12-20T14:34:07.558Z,29.32
2018-12-20T14:36:35.023Z,29.02
2018-12-20T14:39:02.603Z,29.75
2018-12-20T14:41:30.056Z,29.72
2018-12-20T14:43:57.490Z,32.03
2018-12-20T14:46:25.006Z,32.30
2018-12-20T14:48:52.451Z,31.33
2018-12-20T14:51:19.891Z,31.20
2018-12-20T14:53:47.334Z,30.12
2018-12-20T14:56:14.783Z,32.05
2018-12-20T14:58:42.219Z,31.77
2018-12-20T15:01:09.675Z,32.33
2018-12-20T15:03:37.117Z,28.73
2018-12-20T15:06:04.574Z,29.42
2018-12-20T15:08:32.013Z,28.05
2018-12-20T15:10:59.474Z,27.98
2018-12-20T15:13:26.931Z,28.87
2018-12-20T15:15:54.402Z,32.17
2018-12-20T15:18:21.956Z,33.20
2018-12-20T15:20:49.499Z,29.90
2018-12-20T15:23:16.951Z,36.83
2018-12-20T15:25:45.371Z,30.13
2018-12-20T15:28:13.065Z,31.25
2018-12-20T15:30:40.649Z,31.53
2018-12-20T15:33:08.138Z,29.05
2018-12-20T15:35:35.577Z,28.57
2018-12-20T15:38:03.046Z,27.48
2018-12-20T15:40:30.510Z,27.30
2018-12-20T15:42:57.958Z,26.50
2018-12-20T15:45:25.411Z,26.48
2018-12-20T15:47:52.858Z,25.65
2018-12-20T15:50:20.314Z,26.80
2018-12-20T15:52:47.760Z,27.98
2018-12-20T15:55:15.235Z,26.17
2018-12-20T15:57:42.795Z,29.40
2018-12-20T16:00:10.447Z,28.07
2018-12-20T16:02:37.979Z,27.35
2018-12-20T16:05:05.743Z,24.92
2018-12-20T16:07:33.210Z,23.52
2018-12-20T16:10:00.658Z,25.60
2018-12-20T16:12:28.111Z,24.40
2018-12-20T16:14:55.742Z,25.05
2018-12-20T16:17:23.198Z,25.23
2018-12-20T16:19:50.640Z,24.67
2018-12-20T16:22:18.101Z,24.75
2018-12-20T16:24:45.542Z,25.65
2018-12-20T16:27:13.090Z,24.35
2018-12-20T16:29:40.527Z,26.85
2018-12-20T16:32:07.986Z,26.25
2018-12-20T16:34:35.467Z,25.43
2018-12-20T16:37:02.922Z,25.92
2018-12-20T16:39:30.354Z,25.95
2018-12-20T16:41:57.814Z,31.62
2018-12-20T16:44:25.304Z,27.55
2018-12-20T16:46:52.739Z,26.35
2018-12-20T16:49:20.174Z,25.65
2018-12-20T16:51:47.621Z,25.77
2018-12-20T16:54:15.074Z,24.57
2018-12-20T16:56:42.521Z,25.55
2018-12-20T16:59:09.986Z,24.63
2018-12-20T17:01:37.451Z,25.50
2018-12-20T17:04:04.910Z,26.05
2018-12-20T17:06:32.358Z,24.27
2018-12-20T17:08:59.802Z,25.80
2018-12-20T17:11:27.267Z,25.90
2018-12-20T17:13:54.734Z,25.92
2018-12-20T17:16:22.178Z,25.37
2018-12-20T17:18:49.644Z,25.95
2018-12-20T17:21:17.101Z,26.23
2018-12-20T17:23:44.550Z,28.30
2018-12-20T17:26:12.020Z,26.57
2018-12-20T17:28:39.622Z,26.07
2018-12-20T17:31:07.075Z,27.75
2018-12-20T17:33:34.539Z,27.10
2018-12-20T17:36:01.986Z,27.77
2018-12-20T17:38:29.424Z,26.75
2018-12-20T17:40:56.859Z,27.65
2018-12-20T17:43:24.322Z,27.30
2018-12-20T17:45:51.796Z,28.73
2018-12-20T17:48:19.239Z,31.02
2018-12-20T17:50:46.710Z,28.32
2018-12-20T17:53:14.162Z,28.97
2018-12-20T17:55:44.912Z,28.42
2018-12-20T17:58:11.091Z,28.40
2018-12-20T18:00:38.529Z,28.73
2018-12-20T18:03:06.201Z,29.48
2018-12-20T18:05:33.726Z,33.35
2018-12-20T18:08:01.156Z,30.75
2018-12-20T18:10:28.621Z,29.75
2018-12-20T18:12:56.331Z,30.82
2018-12-20T18:15:23.817Z,28.77
2018-12-20T18:17:51.297Z,30.45
2018-12-20T18:20:18.750Z,30.82
2018-12-20T18:22:46.548Z,30.03
2018-12-20T18:25:13.981Z,28.55
2018-12-20T18:27:41.453Z,29.90
2018-12-20T18:30:09.624Z,29.07
2018-12-20T18:32:37.111Z,28.38
2018-12-20T18:35:05.615Z,29.95
2018-12-20T18:37:34.007Z,27.82
2018-12-20T18:40:01.451Z,25.40
2018-12-20T18:42:28.898Z,26.07
2018-12-20T18:44:57.646Z,25.95
2018-12-20T18:47:25.111Z,26.90
2018-12-20T18:49:52.547Z,26.10
2018-12-20T18:52:20.123Z,27.52
2018-12-20T18:54:47.565Z,30.65
2018-12-20T18:57:15.026Z,25.60
2018-12-20T18:59:42.560Z,24.47
2018-12-20T19:02:10.023Z,25.72
2018-12-20T19:04:37.491Z,26.37
2018-12-20T19:07:04.946Z,24.80
2018-12-20T19:09:32.906Z,25.37
2018-12-20T19:12:00.373Z,24.63
2018-12-20T19:14:28.232Z,26.50
2018-12-20T19:16:55.714Z,27.15
2018-12-20T19:19:23.239Z,26.57
2018-12-20T19:21:50.699Z,26.80
2018-12-20T19:24:18.862Z,26.37
2018-12-20T19:26:46.309Z,26.60
2018-12-20T19:29:13.756Z,28.92
2018-12-20T19:31:41.253Z,28.92
2018-12-20T19:34:09.456Z,27.55
2018-12-20T19:36:36.912Z,27.02
2018-12-20T19:39:07.770Z,26.82
2018-12-20T19:41:35.246Z,25.60
2018-12-20T19:44:02.700Z,25.85
2018-12-20T19:46:30.159Z,27.10
2018-12-20T19:48:57.603Z,27.45
2018-12-20T19:51:25.041Z,26.68
2018-12-20T19:53:52.490Z,26.70
2018-12-20T19:56:20.326Z,24.23
2018-12-20T19:58:48.699Z,23.55
2018-12-20T20:01:16.210Z,23.85
2018-12-20T20:03:43.650Z,26.57
2018-12-20T20:06:11.124Z,28.43
2018-12-20T20:08:38.570Z,31.85
2018-12-20T20:11:06.019Z,27.15
2018-12-20T20:13:33.506Z,21.60
2018-12-20T20:16:01.042Z,24.05
2018-12-20T20:18:28.490Z,30.97
2018-12-20T20:20:55.982Z,25.00
2018-12-20T20:23:23.411Z,25.60
2018-12-20T20:25:50.851Z,23.52
2018-12-20T20:28:18.288Z,24.55
2018-12-20T20:30:49.792Z,28.17
2018-12-20T20:33:17.243Z,24.57
2018-12-20T20:35:44.690Z,21.60
2018-12-20T20:38:12.141Z,18.93
2018-12-20T20:40:39.585Z,20.48
2018-12-20T20:43:07.046Z,21.65
2018-12-20T20:45:34.502Z,21.20
2018-12-20T20:48:05.946Z,22.45
2018-12-20T20:50:33.726Z,22.80
2018-12-20T20:53:01.188Z,20.50
2018-12-20T20:55:28.632Z,22.75
2018-12-20T20:57:56.086Z,18.30
2018-12-20T21:00:24.903Z,18.73
2018-12-20T21:02:52.493Z,17.70
2018-12-20T21:05:19.940Z,18.97
2018-12-20T21:07:47.410Z,19.55
2018-12-20T21:10:14.869Z,20.75
2018-12-20T21:12:42.320Z,21.33
2018-12-20T21:15:09.883Z,21.50
2018-12-20T21:17:37.339Z,20.70
2018-12-20T21:20:06.689Z,22.22
2018-12-20T21:22:34.127Z,22.60
2018-12-20T21:25:01.598Z,22.07
2018-12-20T21:27:29.047Z,21.02
2018-12-20T21:29:56.518Z,21.75
2018-12-20T21:32:24.007Z,22.32
2018-12-20T21:34:51.467Z,23.15
2018-12-20T21:37:18.904Z,23.83
2018-12-20T21:39:46.369Z,28.75
2018-12-20T21:42:13.934Z,28.15
2018-12-20T21:44:41.419Z,24.60
2018-12-20T21:47:08.845Z,23.98
2018-12-20T21:49:36.298Z,23.75
2018-12-20T21:52:03.992Z,28.15
2018-12-20T21:54:31.443Z,31.60
2018-12-20T21:56:58.939Z,27.80
2018-12-20T21:59:26.382Z,26.80
2018-12-20T22:01:53.823Z,26.12
2018-12-20T22:04:21.265Z,27.90
2018-12-20T22:06:48.692Z,28.25
2018-12-20T22:09:16.151Z,25.80
2018-12-20T22:11:43.603Z,26.40
2018-12-20T22:14:11.056Z,25.85
2018-12-20T22:16:38.490Z,25.17
2018-12-20T22:19:05.934Z,26.65
2018-12-20T22:21:33.382Z,26.07
2018-12-20T22:24:00.847Z,25.37
2018-12-20T22:26:28.319Z,25.10
2018-12-20T22:28:55.796Z,23.98
2018-12-20T22:31:23.237Z,24.40
2018-12-20T22:33:50.674Z,25.90
2018-12-20T22:36:18.155Z,26.82
2018-12-20T22:38:45.655Z,27.60
2018-12-20T22:41:13.141Z,27.50
2018-12-20T22:43:40.607Z,27.48
2018-12-20T22:46:08.135Z,25.32
2018-12-20T22:48:35.569Z,25.60
2018-12-20T22:51:03.027Z,27.10
2018-12-20T22:53:31.251Z,25.57
2018-12-20T22:55:58.727Z,26.73
2018-12-20T22:58:26.186Z,25.75
2018-12-20T23:00:55.108Z,26.93
2018-12-20T23:03:22.567Z,28.07
2018-12-20T23:05:50.006Z,27.60
2018-12-20T23:08:17.462Z,30.50
2018-12-20T23:10:44.932Z,30.80
2018-12-20T23:13:13.005Z,29.80
2018-12-20T23:15:40.472Z,29.55
2018-12-20T23:18:07.918Z,32.07
2018-12-20T23:20:35.442Z,28.77
2018-12-20T23:23:02.899Z,29.85
2018-12-20T23:25:30.351Z,30.97
2018-12-20T23:27:57.787Z,35.35
2018-12-20T23:30:25.248Z,31.50
2018-12-20T23:32:52.687Z,32.93
2018-12-20T23:35:20.157Z,30.25
2018-12-20T23:37:47.600Z,28.27
2018-12-20T23:40:15.043Z,31.25
2018-12-20T23:42:42.496Z,32.35
2018-12-20T23:45:09.943Z,31.15
2018-12-20T23:47:37.376Z,30.13
2018-12-20T23:50:05.646Z,30.15
2018-12-20T23:52:33.079Z,29.77
2018-12-20T23:55:00.535Z,30.75
2018-12-20T23:57:27.973Z,30.25
2018-12-20T23:59:55.414Z,33.87
